createdAt,value
2022-08-04T00:00:10.489Z,1.63
2022-08-04T00:03:01.989Z,1.40
2022-08-04T00:05:52.344Z,1.55
2022-08-04T00:08:24.749Z,1.65
2022-08-04T00:10:54.791Z,1.60
2022-08-04T00:13:26.416Z,1.73
2022-08-04T00:16:04.605Z,1.77
2022-08-04T00:18:41.543Z,1.93
2022-08-04T00:21:14.710Z,1.60
2022-08-04T00:24:11.524Z,1.75
2022-08-04T00:26:30.763Z,1.70
2022-08-04T00:28:57.436Z,1.70
2022-08-04T00:31:53.678Z,1.63
2022-08-04T00:34:13.705Z,1.60
2022-08-04T00:36:41.437Z,1.40
2022-08-04T00:39:11.757Z,1.60
2022-08-04T00:41:58.846Z,1.55
2022-08-04T00:44:58.187Z,1.42
2022-08-04T00:47:33.311Z,1.63
2022-08-04T00:50:02.773Z,1.75
2022-08-04T00:52:41.401Z,1.70
2022-08-04T00:55:19.163Z,1.95
2022-08-04T00:57:58.865Z,2.13
2022-08-04T01:00:25.639Z,1.90
2022-08-04T01:03:09.642Z,2.03
2022-08-04T01:06:14.181Z,2.22
2022-08-04T01:09:10.826Z,2.08
2022-08-04T01:12:06.640Z,2.00
2022-08-04T01:14:46.520Z,2.10
2022-08-04T01:17:31.699Z,2.00
2022-08-04T01:20:10.883Z,1.70
2022-08-04T01:22:50.399Z,1.92
2022-08-04T01:25:32.558Z,1.70
2022-08-04T01:28:20.402Z,1.92
2022-08-04T01:30:49.998Z,1.80
2022-08-04T01:33:18.302Z,1.60
2022-08-04T01:35:49.229Z,2.03
2022-08-04T01:38:25.397Z,1.45
2022-08-04T01:40:53.816Z,1.60
2022-08-04T01:43:21.165Z,1.35
2022-08-04T01:45:57.963Z,1.55
2022-08-04T01:48:25.892Z,1.67
2022-08-04T01:50:53.815Z,1.60
2022-08-04T01:53:21.530Z,1.50
2022-08-04T01:55:51.818Z,1.60
2022-08-04T01:58:21.979Z,1.70
2022-08-04T02:00:56.799Z,1.40
2022-08-04T02:03:23.542Z,1.45
2022-08-04T02:06:25.293Z,1.50
2022-08-04T02:09:03.889Z,1.50
2022-08-04T02:11:30.547Z,1.20
2022-08-04T02:14:40.493Z,1.20
2022-08-04T02:17:29.546Z,1.30
2022-08-04T02:20:06.205Z,1.60
2022-08-04T02:22:43.070Z,1.73
2022-08-04T02:25:11.195Z,1.65
2022-08-04T02:28:01.073Z,1.30
2022-08-04T02:30:44.356Z,1.40
2022-08-04T02:33:13.895Z,1.50
2022-08-04T02:35:41.341Z,1.50
2022-08-04T02:38:32.486Z,1.60
2022-08-04T02:41:00.505Z,1.70
2022-08-04T02:43:50.932Z,1.83
2022-08-04T02:46:19.254Z,1.45
2022-08-04T02:48:46.710Z,2.03
2022-08-04T02:51:14.487Z,1.45
2022-08-04T02:53:41.899Z,1.50
2022-08-04T02:56:09.368Z,1.77
2022-08-04T02:58:37.248Z,1.52
2022-08-04T03:01:04.525Z,1.42
2022-08-04T03:04:12.236Z,1.45
2022-08-04T03:07:03.454Z,1.48
2022-08-04T03:09:41.730Z,1.65
2022-08-04T03:12:33.081Z,1.67
2022-08-04T03:15:21.245Z,1.90
2022-08-04T03:18:20.587Z,1.75
2022-08-04T03:20:59.754Z,1.55
2022-08-04T03:23:44.957Z,1.80
2022-08-04T03:26:25.571Z,1.63
2022-08-04T03:29:26.020Z,1.30
2022-08-04T03:32:51.028Z,1.80
2022-08-04T03:35:42.437Z,1.40
2022-08-04T03:38:21.855Z,1.50
2022-08-04T03:41:14.956Z,1.50
2022-08-04T03:44:28.529Z,1.70
2022-08-04T03:47:25.910Z,1.80
2022-08-04T03:50:10.437Z,1.80
2022-08-04T03:53:10.777Z,1.80
2022-08-04T03:56:00.479Z,1.60
2022-08-04T03:59:15.068Z,1.80
2022-08-04T04:02:02.343Z,1.60
2022-08-04T04:04:51.808Z,2.00
2022-08-04T04:08:04.340Z,1.60
2022-08-04T04:11:12.579Z,1.52
2022-08-04T04:13:50.934Z,1.77
2022-08-04T04:16:43.916Z,1.50
2022-08-04T04:19:30.724Z,1.80
2022-08-04T04:22:03.253Z,1.45
2022-08-04T04:25:04.981Z,1.60
2022-08-04T04:27:43.598Z,1.50
2022-08-04T04:30:19.821Z,1.90
2022-08-04T04:32:52.289Z,1.58
2022-08-04T04:35:30.831Z,1.70
2022-08-04T04:38:33.106Z,1.92
2022-08-04T04:41:26.674Z,1.70
2022-08-04T04:44:30.710Z,2.20
2022-08-04T04:47:16.874Z,1.88
2022-08-04T04:49:52.456Z,2.03
2022-08-04T04:52:28.615Z,1.80
2022-08-04T04:55:18.643Z,2.22
2022-08-04T04:57:54.448Z,1.98
2022-08-04T05:00:24.525Z,2.00
2022-08-04T05:02:50.862Z,1.75
2022-08-04T05:05:52.717Z,2.10
2022-08-04T05:08:51.182Z,1.90
2022-08-04T05:11:37.829Z,1.70
2022-08-04T05:14:38.404Z,1.83
2022-08-04T05:17:22.446Z,1.90
2022-08-04T05:20:15.165Z,1.60
2022-08-04T05:22:51.760Z,1.70
2022-08-04T05:25:23.813Z,1.80
2022-08-04T05:27:55.791Z,1.50
2022-08-04T05:30:25.235Z,1.48
2022-08-04T05:33:04.066Z,1.50
2022-08-04T05:35:47.794Z,1.67
2022-08-04T05:38:27.801Z,1.50
2022-08-04T05:40:54.794Z,1.50
2022-08-04T05:43:23.503Z,1.48
2022-08-04T05:45:51.320Z,1.58
2022-08-04T05:48:18.221Z,1.50
2022-08-04T05:50:46.152Z,1.50
2022-08-04T05:53:13.600Z,1.80
2022-08-04T05:55:57.328Z,1.45
2022-08-04T05:58:28.630Z,1.70
2022-08-04T06:00:55.564Z,1.50
2022-08-04T06:03:22.750Z,1.80
2022-08-04T06:05:49.922Z,1.75
2022-08-04T06:08:16.456Z,1.70
2022-08-04T06:10:45.023Z,1.83
2022-08-04T06:13:49.244Z,1.80
2022-08-04T06:15:59.856Z,1.70
2022-08-04T06:19:56.903Z,1.80
2022-08-04T06:21:19.280Z,2.05
2022-08-04T06:23:53.147Z,1.75
2022-08-04T06:26:28.737Z,1.90
2022-08-04T06:28:55.423Z,1.98
2022-08-04T06:32:30.036Z,2.15
2022-08-04T06:34:30.934Z,2.33
2022-08-04T06:36:58.991Z,2.10
2022-08-04T06:39:26.158Z,2.00
2022-08-04T06:42:16.962Z,1.98
2022-08-04T06:44:46.944Z,2.15
2022-08-04T06:47:13.993Z,2.10
2022-08-04T06:51:22.943Z,1.85
2022-08-04T06:52:28.296Z,2.00
2022-08-04T06:54:55.602Z,2.08
2022-08-04T06:57:23.841Z,2.40
2022-08-04T07:00:12.247Z,1.90
2022-08-04T07:02:46.465Z,2.22
2022-08-04T07:05:13.721Z,2.13
2022-08-04T07:07:57.388Z,2.17
2022-08-04T07:10:27.867Z,2.15
2022-08-04T07:12:56.839Z,2.30
2022-08-04T07:15:23.540Z,2.45
2022-08-04T07:17:52.226Z,2.70
2022-08-04T07:23:06.477Z,2.67
2022-08-04T07:25:59.935Z,2.88
2022-08-04T07:28:22.899Z,2.90
2022-08-04T07:30:49.847Z,3.05
2022-08-04T07:33:17.298Z,2.97
2022-08-04T07:36:04.546Z,3.38
2022-08-04T07:38:30.753Z,3.00
2022-08-04T07:40:59.279Z,2.90
2022-08-04T07:43:27.501Z,3.03
2022-08-04T07:45:54.000Z,3.20
2022-08-04T07:48:23.033Z,3.08
2022-08-04T07:50:50.225Z,2.63
2022-08-04T07:53:52.828Z,2.88
2022-08-04T07:56:03.739Z,2.92
2022-08-04T07:58:30.518Z,2.58
2022-08-04T08:00:57.783Z,2.78
2022-08-04T08:03:25.401Z,2.90
2022-08-04T08:06:17.811Z,2.95
2022-08-04T08:08:39.966Z,2.70
2022-08-04T08:11:07.812Z,2.87
2022-08-04T08:13:36.762Z,2.90
2022-08-04T08:16:03.863Z,3.00
2022-08-04T08:18:31.106Z,2.65
2022-08-04T08:20:58.388Z,2.90
2022-08-04T08:23:26.182Z,2.40
2022-08-04T08:25:52.773Z,3.03
2022-08-04T08:28:19.283Z,2.97
2022-08-04T08:30:45.758Z,3.00
2022-08-04T08:33:20.662Z,2.90
2022-08-04T08:36:13.594Z,2.58
2022-08-04T08:38:44.916Z,2.50
2022-08-04T08:41:17.313Z,2.75
2022-08-04T08:44:36.364Z,2.22
2022-08-04T08:48:04.934Z,2.45
2022-08-04T08:50:41.930Z,2.55
2022-08-04T08:53:40.078Z,3.03
2022-08-04T08:56:40.636Z,2.78
2022-08-04T08:59:27.130Z,2.85
2022-08-04T09:02:15.306Z,2.30
2022-08-04T09:05:03.129Z,2.42
2022-08-04T09:07:54.642Z,2.20
2022-08-04T09:10:45.378Z,2.30
2022-08-04T09:13:24.411Z,2.05
2022-08-04T09:16:11.169Z,1.95
2022-08-04T09:19:37.444Z,2.13
2022-08-04T09:22:16.849Z,2.22
2022-08-04T09:25:04.788Z,2.22
2022-08-04T09:27:41.253Z,2.28
2022-08-04T09:30:09.583Z,2.30
2022-08-04T09:32:38.912Z,2.08
2022-08-04T09:35:30.299Z,1.80
2022-08-04T09:38:29.352Z,2.40
2022-08-04T09:41:35.889Z,2.60
2022-08-04T09:44:50.680Z,2.13
2022-08-04T09:47:40.375Z,2.20
2022-08-04T09:50:24.548Z,2.20
2022-08-04T09:53:02.768Z,2.45
2022-08-04T09:55:54.456Z,2.08
2022-08-04T09:58:33.254Z,1.90
2022-08-04T10:01:06.970Z,2.08
2022-08-04T10:03:36.513Z,2.38
2022-08-04T10:06:34.133Z,2.10
2022-08-04T10:09:34.230Z,2.00
2022-08-04T10:12:23.723Z,2.00
2022-08-04T10:15:03.830Z,2.25
2022-08-04T10:17:32.858Z,1.90
2022-08-04T10:20:35.941Z,2.13
2022-08-04T10:23:56.482Z,1.80
2022-08-04T10:26:52.130Z,1.80
2022-08-04T10:29:46.688Z,1.80
2022-08-04T10:32:43.029Z,2.15
2022-08-04T10:35:13.629Z,1.80
2022-08-04T10:38:02.260Z,2.22
2022-08-04T10:40:36.553Z,2.20
2022-08-04T10:43:22.479Z,2.10
2022-08-04T10:45:58.528Z,2.05
2022-08-04T10:48:55.719Z,2.13
2022-08-04T10:51:57.182Z,1.90
2022-08-04T10:54:37.830Z,2.28
2022-08-04T10:57:09.048Z,2.13
2022-08-04T11:00:03.371Z,2.20
2022-08-04T11:02:38.007Z,2.10
2022-08-04T11:05:49.853Z,2.33
2022-08-04T11:08:25.441Z,2.10
2022-08-04T11:11:17.456Z,2.00
2022-08-04T11:14:00.887Z,1.85
2022-08-04T11:16:41.815Z,1.98
2022-08-04T11:19:44.765Z,1.90
2022-08-04T11:22:27.862Z,1.80
2022-08-04T11:25:09.446Z,1.50
2022-08-04T11:27:42.103Z,1.60
2022-08-04T11:30:13.121Z,1.48
2022-08-04T11:32:52.750Z,1.63
2022-08-04T11:35:29.348Z,1.55
2022-08-04T11:38:02.590Z,1.55
2022-08-04T11:41:02.333Z,1.73
2022-08-04T11:44:00.960Z,1.60
2022-08-04T11:46:38.022Z,1.50
2022-08-04T11:49:16.614Z,1.63
2022-08-04T11:51:44.709Z,1.50
2022-08-04T11:54:12.224Z,1.70
2022-08-04T11:56:38.717Z,1.90
2022-08-04T11:59:08.109Z,1.60
2022-08-04T12:02:05.247Z,1.42
2022-08-04T12:05:01.226Z,1.40
2022-08-04T12:07:51.990Z,1.25
2022-08-04T12:10:41.551Z,1.20
2022-08-04T12:13:21.233Z,1.40
2022-08-04T12:16:15.284Z,1.40
2022-08-04T12:18:45.831Z,1.33
2022-08-04T12:21:23.245Z,1.30
2022-08-04T12:23:50.795Z,1.42
2022-08-04T12:26:29.315Z,1.40
2022-08-04T12:29:16.124Z,1.38
2022-08-04T12:31:49.617Z,1.30
2022-08-04T12:34:34.512Z,1.20
2022-08-04T12:37:10.606Z,1.40
2022-08-04T12:40:21.416Z,1.35
2022-08-04T12:42:31.089Z,1.30
2022-08-04T12:44:58.367Z,1.63
2022-08-04T12:47:29.071Z,1.08
2022-08-04T12:50:02.329Z,1.27
2022-08-04T12:52:59.293Z,1.10
2022-08-04T12:55:20.889Z,1.13
2022-08-04T12:57:48.113Z,1.25
2022-08-04T13:00:30.529Z,1.20
2022-08-04T13:03:06.356Z,1.25
2022-08-04T13:05:37.652Z,1.13
2022-08-04T13:08:04.829Z,1.20
2022-08-04T13:10:32.131Z,1.20
2022-08-04T13:13:00.154Z,1.33
2022-08-04T13:15:28.233Z,1.13
2022-08-04T13:18:15.009Z,1.08
2022-08-04T13:20:43.483Z,1.45
2022-08-04T13:23:12.526Z,1.10
2022-08-04T13:26:42.779Z,1.15
2022-08-04T13:28:31.718Z,1.33
2022-08-04T13:31:05.446Z,1.35
2022-08-04T13:33:34.235Z,1.75
2022-08-04T13:36:01.293Z,1.10
2022-08-04T13:38:28.701Z,1.33
2022-08-04T13:41:03.959Z,1.42
2022-08-04T13:44:16.367Z,1.33
2022-08-04T13:46:32.141Z,1.50
2022-08-04T13:49:28.293Z,1.50
2022-08-04T13:51:58.511Z,1.20
2022-08-04T13:54:42.598Z,1.27
2022-08-04T13:57:27.003Z,1.40
2022-08-04T13:59:55.663Z,1.40
2022-08-04T14:02:32.291Z,1.50
2022-08-04T14:05:04.058Z,1.42
2022-08-04T14:07:31.872Z,1.70
2022-08-04T14:10:03.516Z,1.17
2022-08-04T14:12:38.935Z,1.23
2022-08-04T14:16:01.408Z,1.33
2022-08-04T14:18:32.179Z,1.63
2022-08-04T14:21:04.785Z,1.50
2022-08-04T14:23:55.513Z,1.38
2022-08-04T14:26:32.860Z,1.50
2022-08-04T14:32:03.245Z,1.48
2022-08-04T14:34:32.723Z,1.50
2022-08-04T14:37:18.612Z,1.50
2022-08-04T14:40:17.752Z,1.30
2022-08-04T14:42:43.034Z,1.20
2022-08-04T14:45:09.970Z,1.45
2022-08-04T14:47:52.544Z,1.50
2022-08-04T14:50:20.026Z,1.40
2022-08-04T14:52:46.647Z,1.50
2022-08-04T14:55:21.724Z,1.60
2022-08-04T14:58:37.827Z,1.30
2022-08-04T15:00:37.359Z,1.20
2022-08-04T15:03:08.439Z,1.20
2022-08-04T15:06:00.828Z,1.30
2022-08-04T15:08:30.907Z,1.42
2022-08-04T15:10:59.490Z,1.40
2022-08-04T15:13:26.543Z,1.52
2022-08-04T15:16:04.136Z,1.10
2022-08-04T15:18:35.860Z,1.30
2022-08-04T15:21:02.740Z,1.25
2022-08-04T15:23:38.919Z,1.30
2022-08-04T15:26:09.275Z,1.30
2022-08-04T15:28:37.550Z,1.38
2022-08-04T15:31:05.176Z,1.30
2022-08-04T15:33:39.850Z,1.20
2022-08-04T15:36:28.840Z,1.30
2022-08-04T15:39:11.022Z,1.33
2022-08-04T15:41:55.096Z,1.45
2022-08-04T15:44:36.849Z,1.30
2022-08-04T15:47:03.165Z,1.33
2022-08-04T15:49:29.787Z,1.40
2022-08-04T15:52:00.425Z,1.20
2022-08-04T15:54:32.729Z,1.20
2022-08-04T15:57:02.542Z,1.20
2022-08-04T16:00:01.940Z,1.30
2022-08-04T16:02:39.236Z,1.40
2022-08-04T16:05:17.790Z,1.40
2022-08-04T16:08:00.814Z,1.38
2022-08-04T16:10:29.922Z,1.30
2022-08-04T16:12:58.648Z,1.52
2022-08-04T16:15:41.371Z,1.25
2022-08-04T16:18:13.705Z,1.30
2022-08-04T16:20:45.339Z,1.67
2022-08-04T16:23:54.959Z,1.40
2022-08-04T16:26:42.253Z,1.25
2022-08-04T16:29:27.720Z,1.60
2022-08-04T16:32:06.808Z,1.40
2022-08-04T16:34:49.261Z,1.40
2022-08-04T16:37:18.843Z,1.50
2022-08-04T16:39:51.002Z,1.40
2022-08-04T16:42:30.372Z,1.20
2022-08-04T16:45:09.106Z,1.40
2022-08-04T16:47:47.730Z,1.45
2022-08-04T16:50:21.900Z,1.45
2022-08-04T16:52:50.393Z,1.50
2022-08-04T16:55:22.077Z,1.20
2022-08-04T16:57:49.660Z,1.38
2022-08-04T17:00:16.634Z,1.47
2022-08-04T17:02:43.742Z,1.52
2022-08-04T17:05:39.228Z,1.60
2022-08-04T17:08:29.163Z,1.30
2022-08-04T17:10:54.681Z,1.85
2022-08-04T17:14:02.437Z,1.23
2022-08-04T17:16:18.845Z,1.52
2022-08-04T17:18:47.611Z,1.25
2022-08-04T17:21:25.694Z,1.67
2022-08-04T17:24:14.019Z,1.27
2022-08-04T17:26:45.426Z,1.50
2022-08-04T17:29:20.308Z,1.20
2022-08-04T17:31:46.987Z,1.35
2022-08-04T17:34:19.362Z,1.50
2022-08-04T17:36:47.641Z,1.40
2022-08-04T17:39:21.684Z,1.30
2022-08-04T17:41:49.196Z,1.30
2022-08-04T17:44:16.215Z,1.40
2022-08-04T17:46:45.501Z,1.63
2022-08-04T17:49:16.777Z,1.80
2022-08-04T17:54:40.764Z,1.40
2022-08-04T17:57:19.981Z,1.40
2022-08-04T17:59:57.523Z,1.40
2022-08-04T18:02:32.900Z,1.30
2022-08-04T18:05:07.840Z,1.60
2022-08-04T18:08:42.808Z,1.67
2022-08-04T18:10:52.447Z,1.50
2022-08-04T18:13:24.138Z,1.40
2022-08-04T18:15:51.096Z,1.33
2022-08-04T18:18:23.393Z,1.40
2022-08-04T18:20:50.422Z,1.48
2022-08-04T18:23:17.160Z,1.33
2022-08-04T18:25:51.043Z,1.40
2022-08-04T18:28:26.731Z,1.40
2022-08-04T18:30:56.036Z,1.33
2022-08-04T18:36:34.060Z,1.45
2022-08-04T18:38:58.705Z,1.27
2022-08-04T18:43:55.842Z,1.67
2022-08-04T18:46:27.154Z,1.60
2022-08-04T18:48:54.312Z,1.40
2022-08-04T18:51:24.794Z,1.40
2022-08-04T18:53:58.261Z,1.77
2022-08-04T18:56:29.719Z,1.80
2022-08-04T18:58:59.835Z,1.63
2022-08-04T19:01:30.380Z,1.80
2022-08-04T19:04:33.293Z,3.72
2022-08-04T19:07:23.428Z,1.50
2022-08-04T19:09:52.184Z,2.65
2022-08-04T19:12:26.318Z,2.78
2022-08-04T19:14:58.148Z,2.40
2022-08-04T19:17:53.977Z,1.88
2022-08-04T19:20:24.523Z,2.40
2022-08-04T19:24:10.710Z,2.35
